Flinterduin — PEBT — position and weather

sailwx.info

Track history (hours):
 
Tides and Currents Weather Stations Pressure Air Temp Water Temp Dewpoint Dewpoint Depression Visibility Wind Speed Wind Dir Waves Ship Positions

Flinterduin

Last reported at 2015-May-25 19:31 UTC. Time now 2015-May-25 19:39 UTC.
Position N 46°38' E 031°35'.

Length 112 m; beam 15 m.

Type: Cargo ship. MMSI: 246484000.

Date/timePositionNaut miles runAvg speedWind from/ knotsBaromVisibWave heightAir tempDewpointWater temp
2015-May-25 19:31N 46°38' E 031°35'0 0.0
2015-May-25 18:31N 46°38' E 031°35'0 0.0
2015-May-25 17:31N 46°38' E 031°35'0 0.0
2015-May-25 16:19N 46°38' E 031°35'0 0.0
2015-May-25 09:30N 46°38' E 031°35'0 0.0
2015-May-25 05:15N 46°38' E 031°35'0 0.0
2015-May-25 04:30N 46°38' E 031°35'0 0.0
2015-May-25 03:33N 46°38' E 031°35'0 0.0
2015-May-25 02:12N 46°38' E 031°35'0 0.0
2015-May-24 21:27N 46°38' E 031°35'0 0.0
2015-May-24 20:24N 46°38' E 031°35'0 0.0
2015-May-24 19:24N 46°38' E 031°35'0 0.0
2015-May-24 18:15N 46°38' E 031°35'0 0.0
2015-May-24 17:33N 46°38' E 031°35'0 0.0
2015-May-24 16:30N 46°38' E 031°35'0 0.0
2015-May-24 15:24N 46°38' E 031°35'0 0.0
2015-May-24 05:30N 46°38' E 031°35'0 0.0
2015-May-24 04:30N 46°38' E 031°35'0 0.0
2015-May-24 03:08N 46°38' E 031°35'0 0.0
2015-May-24 02:20N 46°38' E 031°35'0 0.0
2015-May-24 01:29N 46°38' E 031°35'0 0.0
2015-May-24 00:17N 46°38' E 031°35'0 0.0
2015-May-23 23:29N 46°38' E 031°35'0 0.0
2015-May-23 22:29N 46°38' E 031°35'0 0.0
2015-May-23 21:14N 46°38' E 031°35'0 0.0
2015-May-23 20:29N 46°38' E 031°35'0 0.0
2015-May-23 19:32N 46°38' E 031°35'0 0.0
2015-May-23 18:32N 46°38' E 031°35'0 0.0
2015-May-23 17:32N 46°38' E 031°35'0 0.0
2015-May-23 16:26N 46°38' E 031°35'0 0.0
2015-May-23 06:23N 46°38' E 031°35'0 0.0
2015-May-23 04:32N 46°38' E 031°35'0 0.0
2015-May-23 03:32N 46°38' E 031°35'0 0.0
2015-May-23 02:32N 46°38' E 031°35'0 0.0
2015-May-23 01:29N 46°38' E 031°35'0 0.0
2015-May-23 00:23N 46°38' E 031°35'0 0.0
2015-May-22 23:17N 46°38' E 031°35'0 0.0
2015-May-22 22:26N 46°38' E 031°35'0 0.0
2015-May-22 21:32N 46°38' E 031°35'0 0.0
2015-May-22 19:29N 46°38' E 031°35'0 0.0
2015-May-22 18:05N 46°38' E 031°35'0 0.0
2015-May-22 17:29N 46°38' E 031°35'0 0.0
2015-May-22 16:07N 46°38' E 031°35'0 0.0
2015-May-22 06:14N 46°38' E 031°35'2 2.7
2015-May-22 05:33N 46°36' E 031°36'9 9.4
2015-May-22 04:33N 46°35' E 031°22'1212.5
2015-May-22 03:33N 46°34' E 031°04'6 6.1
2015-May-22 02:33N 46°31' E 030°57'7 6.8
2015-May-22 01:33N 46°24' E 030°57'5 1.1
2015-May-21 21:07N 46°21' E 031°03'  
Track history (hours):
 
Tides and Currents Weather Stations Pressure Air Temp Water Temp Dewpoint Dewpoint Depression Visibility Wind Speed Wind Dir Waves Ship Positions

Flinterduin

Last reported at 2015-May-25 19:31 UTC. Time now 2015-May-25 19:39 UTC.
Position N 46°38' E 031°35'.

Length 112 m; beam 15 m.

Type: Cargo ship. MMSI: 246484000.

Date/timePositionNaut miles runAvg speedWind from/ knotsBaromVisibWave heightAir tempDewpointWater temp
2015-May-25 19:31N 46°38' E 031°35'0 0.0
2015-May-25 18:31N 46°38' E 031°35'0 0.0
2015-May-25 17:31N 46°38' E 031°35'0 0.0
2015-May-25 16:19N 46°38' E 031°35'0 0.0
2015-May-25 09:30N 46°38' E 031°35'0 0.0
2015-May-25 05:15N 46°38' E 031°35'0 0.0
2015-May-25 04:30N 46°38' E 031°35'0 0.0
2015-May-25 03:33N 46°38' E 031°35'0 0.0
2015-May-25 02:12N 46°38' E 031°35'0 0.0
2015-May-24 21:27N 46°38' E 031°35'0 0.0
2015-May-24 20:24N 46°38' E 031°35'0 0.0
2015-May-24 19:24N 46°38' E 031°35'0 0.0
2015-May-24 18:15N 46°38' E 031°35'0 0.0
2015-May-24 17:33N 46°38' E 031°35'0 0.0
2015-May-24 16:30N 46°38' E 031°35'0 0.0
2015-May-24 15:24N 46°38' E 031°35'0 0.0
2015-May-24 05:30N 46°38' E 031°35'0 0.0
2015-May-24 04:30N 46°38' E 031°35'0 0.0
2015-May-24 03:08N 46°38' E 031°35'0 0.0
2015-May-24 02:20N 46°38' E 031°35'0 0.0
2015-May-24 01:29N 46°38' E 031°35'0 0.0
2015-May-24 00:17N 46°38' E 031°35'0 0.0
2015-May-23 23:29N 46°38' E 031°35'0 0.0
2015-May-23 22:29N 46°38' E 031°35'0 0.0
2015-May-23 21:14N 46°38' E 031°35'0 0.0
2015-May-23 20:29N 46°38' E 031°35'0 0.0
2015-May-23 19:32N 46°38' E 031°35'0 0.0
2015-May-23 18:32N 46°38' E 031°35'0 0.0
2015-May-23 17:32N 46°38' E 031°35'0 0.0
2015-May-23 16:26N 46°38' E 031°35'0 0.0
2015-May-23 06:23N 46°38' E 031°35'0 0.0
2015-May-23 04:32N 46°38' E 031°35'0 0.0
2015-May-23 03:32N 46°38' E 031°35'0 0.0
2015-May-23 02:32N 46°38' E 031°35'0 0.0
2015-May-23 01:29N 46°38' E 031°35'0 0.0
2015-May-23 00:23N 46°38' E 031°35'0 0.0
2015-May-22 23:17N 46°38' E 031°35'0 0.0
2015-May-22 22:26N 46°38' E 031°35'0 0.0
2015-May-22 21:32N 46°38' E 031°35'0 0.0
2015-May-22 19:29N 46°38' E 031°35'0 0.0
2015-May-22 18:05N 46°38' E 031°35'0 0.0
2015-May-22 17:29N 46°38' E 031°35'0 0.0
2015-May-22 16:07N 46°38' E 031°35'0 0.0
2015-May-22 06:14N 46°38' E 031°35'2 2.7
2015-May-22 05:33N 46°36' E 031°36'9 9.4
2015-May-22 04:33N 46°35' E 031°22'1212.5
2015-May-22 03:33N 46°34' E 031°04'6 6.1
2015-May-22 02:33N 46°31' E 030°57'7 6.8
2015-May-22 01:33N 46°24' E 030°57'5 1.1
2015-May-21 21:07N 46°21' E 031°03'  

Dump ship's entire track history